sensor_id;sensor_type;location;lat;lon;timestamp;temperature;humidity
8465;DHT22;4269;52.458;13.430;2022-08-03T00:00:00;21.60;99.90
8465;DHT22;4269;52.458;13.430;2022-08-03T00:14:36;21.50;99.90
8465;DHT22;4269;52.458;13.430;2022-08-03T00:19:27;21.50;99.90
8465;DHT22;4269;52.458;13.430;2022-08-03T00:26:46;21.50;99.90
8465;DHT22;4269;52.458;13.430;2022-08-03T00:31:38;21.50;99.90
8465;DHT22;4269;52.458;13.430;2022-08-03T00:34:03;21.70;99.90
8465;DHT22;4269;52.458;13.430;2022-08-03T00:36:29;21.50;99.90
8465;DHT22;4269;52.458;13.430;2022-08-03T00:38:55;21.50;99.90
8465;DHT22;4269;52.458;13.430;2022-08-03T00:48:39;21.20;99.90
8465;DHT22;4269;52.458;13.430;2022-08-03T00:51:05;21.90;99.90
8465;DHT22;4269;52.458;13.430;2022-08-03T00:55:57;21.20;99.90
8465;DHT22;4269;52.458;13.430;2022-08-03T00:58:23;21.10;99.90
8465;DHT22;4269;52.458;13.430;2022-08-03T01:00:49;21.40;99.90
8465;DHT22;4269;52.458;13.430;2022-08-03T01:06:27;21.30;99.90
8465;DHT22;4269;52.458;13.430;2022-08-03T01:14:09;21.30;99.90
8465;DHT22;4269;52.458;13.430;2022-08-03T01:28:15;21.40;99.90
8465;DHT22;4269;52.458;13.430;2022-08-03T01:30:45;21.40;99.90
8465;DHT22;4269;52.458;13.430;2022-08-03T01:33:21;21.40;99.90
8465;DHT22;4269;52.458;13.430;2022-08-03T01:36:01;21.40;99.90
8465;DHT22;4269;52.458;13.430;2022-08-03T01:38:41;21.40;99.90
8465;DHT22;4269;52.458;13.430;2022-08-03T01:41:11;21.30;99.90
8465;DHT22;4269;52.458;13.430;2022-08-03T01:43:39;21.20;99.90
8465;DHT22;4269;52.458;13.430;2022-08-03T01:46:09;21.30;99.90
8465;DHT22;4269;52.458;13.430;2022-08-03T01:48:37;21.30;99.90
8465;DHT22;4269;52.458;13.430;2022-08-03T01:51:03;21.30;99.90
8465;DHT22;4269;52.458;13.430;2022-08-03T01:53:31;21.30;99.90
8465;DHT22;4269;52.458;13.430;2022-08-03T01:55:59;21.30;99.90
8465;DHT22;4269;52.458;13.430;2022-08-03T01:58:27;21.30;99.90
8465;DHT22;4269;52.458;13.430;2022-08-03T02:00:55;21.40;99.90
8465;DHT22;4269;52.458;13.430;2022-08-03T02:03:26;21.40;99.90
8465;DHT22;4269;52.458;13.430;2022-08-03T02:05:54;21.40;99.90
8465;DHT22;4269;52.458;13.430;2022-08-03T02:08:21;21.40;99.90
8465;DHT22;4269;52.458;13.430;2022-08-03T02:10:49;21.20;99.90
8465;DHT22;4269;52.458;13.430;2022-08-03T02:13:16;21.40;99.90
8465;DHT22;4269;52.458;13.430;2022-08-03T02:18:10;21.40;99.90
8465;DHT22;4269;52.458;13.430;2022-08-03T02:20:37;21.40;99.90
8465;DHT22;4269;52.458;13.430;2022-08-03T02:25:33;21.40;99.90
8465;DHT22;4269;52.458;13.430;2022-08-03T02:28:07;21.40;99.90
8465;DHT22;4269;52.458;13.430;2022-08-03T02:30:37;21.40;99.90
8465;DHT22;4269;52.458;13.430;2022-08-03T02:33:04;21.40;99.90
8465;DHT22;4269;52.458;13.430;2022-08-03T02:35:32;21.40;99.90
8465;DHT22;4269;52.458;13.430;2022-08-03T02:38:02;21.50;99.90
8465;DHT22;4269;52.458;13.430;2022-08-03T02:40:29;21.50;99.90
8465;DHT22;4269;52.458;13.430;2022-08-03T02:42:58;21.50;99.90
8465;DHT22;4269;52.458;13.430;2022-08-03T02:45:26;21.50;99.90
8465;DHT22;4269;52.458;13.430;2022-08-03T02:47:54;21.50;99.90
8465;DHT22;4269;52.458;13.430;2022-08-03T02:50:22;21.30;99.90
8465;DHT22;4269;52.458;13.430;2022-08-03T02:52:48;23.10;99.90
8465;DHT22;4269;52.458;13.430;2022-08-03T02:55:16;21.50;99.90
8465;DHT22;4269;52.458;13.430;2022-08-03T02:57:45;21.50;99.90
8465;DHT22;4269;52.458;13.430;2022-08-03T03:00:12;20.90;99.90
8465;DHT22;4269;52.458;13.430;2022-08-03T03:02:39;21.80;99.90
8465;DHT22;4269;52.458;13.430;2022-08-03T03:05:06;21.40;99.90
8465;DHT22;4269;52.458;13.430;2022-08-03T03:07:33;21.40;99.90
8465;DHT22;4269;52.458;13.430;2022-08-03T03:10:00;21.40;99.90
8465;DHT22;4269;52.458;13.430;2022-08-03T03:12:27;21.30;99.90
8465;DHT22;4269;52.458;13.430;2022-08-03T03:14:52;21.30;99.90
8465;DHT22;4269;52.458;13.430;2022-08-03T03:17:19;21.30;99.90
8465;DHT22;4269;52.458;13.430;2022-08-03T03:19:46;21.30;99.90
8465;DHT22;4269;52.458;13.430;2022-08-03T03:22:14;21.40;99.90
8465;DHT22;4269;52.458;13.430;2022-08-03T03:24:41;21.20;99.90
8465;DHT22;4269;52.458;13.430;2022-08-03T03:34:28;21.10;99.90
8465;DHT22;4269;52.458;13.430;2022-08-03T03:46:38;21.10;99.90
8465;DHT22;4269;52.458;13.430;2022-08-03T03:49:05;21.10;99.90
8465;DHT22;4269;52.458;13.430;2022-08-03T03:51:31;21.10;99.90
8465;DHT22;4269;52.458;13.430;2022-08-03T03:53:59;21.00;99.90
8465;DHT22;4269;52.458;13.430;2022-08-03T03:56:26;21.20;99.90
8465;DHT22;4269;52.458;13.430;2022-08-03T03:58:52;21.10;99.90
8465;DHT22;4269;52.458;13.430;2022-08-03T04:06:11;21.10;99.90
8465;DHT22;4269;52.458;13.430;2022-08-03T04:08:56;21.20;99.90
8465;DHT22;4269;52.458;13.430;2022-08-03T04:11:30;19.30;99.90
8465;DHT22;4269;52.458;13.430;2022-08-03T04:14:33;21.10;99.90
8465;DHT22;4269;52.458;13.430;2022-08-03T04:17:05;21.10;99.90
8465;DHT22;4269;52.458;13.430;2022-08-03T04:19:35;21.20;99.90
8465;DHT22;4269;52.458;13.430;2022-08-03T04:22:05;21.40;99.90
8465;DHT22;4269;52.458;13.430;2022-08-03T04:24:35;21.30;99.90
8465;DHT22;4269;52.458;13.430;2022-08-03T04:27:05;21.40;99.90
8465;DHT22;4269;52.458;13.430;2022-08-03T04:29:34;21.40;99.90
8465;DHT22;4269;52.458;13.430;2022-08-03T04:34:27;21.40;99.90
8465;DHT22;4269;52.458;13.430;2022-08-03T04:36:58;21.60;99.90
8465;DHT22;4269;52.458;13.430;2022-08-03T04:39:26;21.50;99.90
8465;DHT22;4269;52.458;13.430;2022-08-03T04:42:00;21.60;99.90
8465;DHT22;4269;52.458;13.430;2022-08-03T04:44:27;21.60;99.90
8465;DHT22;4269;52.458;13.430;2022-08-03T04:46:54;21.70;99.90
8465;DHT22;4269;52.458;13.430;2022-08-03T04:51:48;21.80;99.90
8465;DHT22;4269;52.458;13.430;2022-08-03T04:54:14;21.90;99.90
8465;DHT22;4269;52.458;13.430;2022-08-03T04:56:41;21.90;99.90
8465;DHT22;4269;52.458;13.430;2022-08-03T04:59:08;21.90;99.90
8465;DHT22;4269;52.458;13.430;2022-08-03T05:01:34;21.20;99.90
8465;DHT22;4269;52.458;13.430;2022-08-03T05:11:18;22.10;99.90
8465;DHT22;4269;52.458;13.430;2022-08-03T05:13:44;22.20;99.90
8465;DHT22;4269;52.458;13.430;2022-08-03T05:16:10;22.50;99.90
8465;DHT22;4269;52.458;13.430;2022-08-03T05:18:36;22.40;99.90
8465;DHT22;4269;52.458;13.430;2022-08-03T05:21:02;22.30;99.90
8465;DHT22;4269;52.458;13.430;2022-08-03T05:25:55;22.40;99.90
8465;DHT22;4269;52.458;13.430;2022-08-03T05:28:21;22.50;99.90
8465;DHT22;4269;52.458;13.430;2022-08-03T05:30:46;22.60;99.90
8465;DHT22;4269;52.458;13.430;2022-08-03T05:35:38;22.80;99.90
8465;DHT22;4269;52.458;13.430;2022-08-03T05:38:04;22.80;99.90
8465;DHT22;4269;52.458;13.430;2022-08-03T05:40:30;22.90;99.90
8465;DHT22;4269;52.458;13.430;2022-08-03T05:42:56;22.90;99.90
8465;DHT22;4269;52.458;13.430;2022-08-03T05:45:22;23.20;99.90
8465;DHT22;4269;52.458;13.430;2022-08-03T05:47:47;23.00;99.90
8465;DHT22;4269;52.458;13.430;2022-08-03T05:50:15;23.00;99.90
8465;DHT22;4269;52.458;13.430;2022-08-03T05:52:41;23.10;99.90
8465;DHT22;4269;52.458;13.430;2022-08-03T05:55:08;23.20;99.90
8465;DHT22;4269;52.458;13.430;2022-08-03T05:57:34;23.20;99.90
8465;DHT22;4269;52.458;13.430;2022-08-03T06:00:02;23.20;99.90
8465;DHT22;4269;52.458;13.430;2022-08-03T06:02:29;23.30;99.90
8465;DHT22;4269;52.458;13.430;2022-08-03T06:04:55;23.50;99.90
8465;DHT22;4269;52.458;13.430;2022-08-03T06:07:20;23.60;99.90
8465;DHT22;4269;52.458;13.430;2022-08-03T06:17:07;23.70;98.40
8465;DHT22;4269;52.458;13.430;2022-08-03T06:19:33;23.80;97.00
8465;DHT22;4269;52.458;13.430;2022-08-03T06:21:59;23.90;96.70
8465;DHT22;4269;52.458;13.430;2022-08-03T06:24:24;23.90;96.10
8465;DHT22;4269;52.458;13.430;2022-08-03T06:29:16;24.10;95.80
8465;DHT22;4269;52.458;13.430;2022-08-03T06:34:07;24.10;94.80
8465;DHT22;4269;52.458;13.430;2022-08-03T06:39:00;24.40;93.30
8465;DHT22;4269;52.458;13.430;2022-08-03T06:41:26;24.50;92.70
8465;DHT22;4269;52.458;13.430;2022-08-03T06:46:18;24.60;92.40
8465;DHT22;4269;52.458;13.430;2022-08-03T06:53:37;24.80;91.90
8465;DHT22;4269;52.458;13.430;2022-08-03T06:56:06;25.00;90.40
8465;DHT22;4269;52.458;13.430;2022-08-03T06:58:32;25.40;90.10
8465;DHT22;4269;52.458;13.430;2022-08-03T07:05:50;25.50;89.70
8465;DHT22;4269;52.458;13.430;2022-08-03T07:08:16;25.50;89.00
8465;DHT22;4269;52.458;13.430;2022-08-03T07:10:43;25.50;89.60
8465;DHT22;4269;52.458;13.430;2022-08-03T07:13:08;25.70;88.60
8465;DHT22;4269;52.458;13.430;2022-08-03T07:15:34;25.70;87.70
8465;DHT22;4269;52.458;13.430;2022-08-03T07:20:26;25.80;84.50
8465;DHT22;4269;52.458;13.430;2022-08-03T07:22:52;25.90;83.90
8465;DHT22;4269;52.458;13.430;2022-08-03T07:25:18;26.00;83.40
8465;DHT22;4269;52.458;13.430;2022-08-03T07:27:46;26.00;80.90
8465;DHT22;4269;52.458;13.430;2022-08-03T07:30:14;25.90;80.00
8465;DHT22;4269;52.458;13.430;2022-08-03T07:32:40;26.10;80.40
8465;DHT22;4269;52.458;13.430;2022-08-03T07:35:07;26.20;81.10
8465;DHT22;4269;52.458;13.430;2022-08-03T07:37:33;26.20;80.00
8465;DHT22;4269;52.458;13.430;2022-08-03T07:39:59;26.20;80.30
8465;DHT22;4269;52.458;13.430;2022-08-03T07:42:27;26.30;80.10
8465;DHT22;4269;52.458;13.430;2022-08-03T07:47:24;26.30;80.00
8465;DHT22;4269;52.458;13.430;2022-08-03T07:52:17;26.60;77.50
8465;DHT22;4269;52.458;13.430;2022-08-03T07:59:54;26.80;76.10
8465;DHT22;4269;52.458;13.430;2022-08-03T08:02:19;26.90;73.50
8465;DHT22;4269;52.458;13.430;2022-08-03T08:04:45;26.30;74.30
8465;DHT22;4269;52.458;13.430;2022-08-03T08:09:37;27.10;73.70
8465;DHT22;4269;52.458;13.430;2022-08-03T08:12:03;27.20;71.70
8465;DHT22;4269;52.458;13.430;2022-08-03T08:16:55;27.40;71.80
8465;DHT22;4269;52.458;13.430;2022-08-03T08:19:20;27.10;70.40
8465;DHT22;4269;52.458;13.430;2022-08-03T08:21:46;27.60;70.20
8465;DHT22;4269;52.458;13.430;2022-08-03T08:24:11;27.40;70.60
8465;DHT22;4269;52.458;13.430;2022-08-03T08:31:31;27.80;68.70
8465;DHT22;4269;52.458;13.430;2022-08-03T08:36:22;27.90;69.20
8465;DHT22;4269;52.458;13.430;2022-08-03T08:38:48;28.10;68.20
8465;DHT22;4269;52.458;13.430;2022-08-03T08:41:14;27.90;65.80
8465;DHT22;4269;52.458;13.430;2022-08-03T08:43:40;27.90;66.40
8465;DHT22;4269;52.458;13.430;2022-08-03T08:46:08;28.00;64.30
8465;DHT22;4269;52.458;13.430;2022-08-03T08:48:40;28.10;64.60
8465;DHT22;4269;52.458;13.430;2022-08-03T08:51:07;28.10;62.20
8465;DHT22;4269;52.458;13.430;2022-08-03T08:53:35;28.20;63.60
8465;DHT22;4269;52.458;13.430;2022-08-03T08:56:02;28.20;61.20
8465;DHT22;4269;52.458;13.430;2022-08-03T08:58:34;28.30;59.50
8465;DHT22;4269;52.458;13.430;2022-08-03T09:01:01;28.40;60.30
8465;DHT22;4269;52.458;13.430;2022-08-03T09:05:53;28.50;59.80
8465;DHT22;4269;52.458;13.430;2022-08-03T09:08:20;28.30;61.00
8465;DHT22;4269;52.458;13.430;2022-08-03T09:10:47;28.70;59.30
8465;DHT22;4269;52.458;13.430;2022-08-03T09:13:14;28.80;58.60
8465;DHT22;4269;52.458;13.430;2022-08-03T09:15:40;28.70;59.20
8465;DHT22;4269;52.458;13.430;2022-08-03T09:18:06;28.90;57.80
8465;DHT22;4269;52.458;13.430;2022-08-03T09:23:05;28.90;58.00
8465;DHT22;4269;52.458;13.430;2022-08-03T09:25:35;29.00;56.10
8465;DHT22;4269;52.458;13.430;2022-08-03T09:28:15;28.90;56.30
8465;DHT22;4269;52.458;13.430;2022-08-03T09:30:57;28.90;56.30
8465;DHT22;4269;52.458;13.430;2022-08-03T09:33:23;28.90;55.70
8465;DHT22;4269;52.458;13.430;2022-08-03T09:35:49;29.00;54.90
8465;DHT22;4269;52.458;13.430;2022-08-03T09:38:19;28.90;55.00
8465;DHT22;4269;52.458;13.430;2022-08-03T09:40:49;28.90;54.60
8465;DHT22;4269;52.458;13.430;2022-08-03T09:45:41;29.10;55.10
8465;DHT22;4269;52.458;13.430;2022-08-03T09:48:23;29.10;54.90
8465;DHT22;4269;52.458;13.430;2022-08-03T09:51:00;29.10;53.70
8465;DHT22;4269;52.458;13.430;2022-08-03T09:53:28;29.10;54.40
8465;DHT22;4269;52.458;13.430;2022-08-03T09:55:54;29.30;54.60
8465;DHT22;4269;52.458;13.430;2022-08-03T09:58:25;29.60;53.70
8465;DHT22;4269;52.458;13.430;2022-08-03T10:01:03;29.40;52.80
8465;DHT22;4269;52.458;13.430;2022-08-03T10:03:36;29.60;52.50
8465;DHT22;4269;52.458;13.430;2022-08-03T10:06:20;29.60;52.30
8465;DHT22;4269;52.458;13.430;2022-08-03T10:09:06;29.70;51.20
8465;DHT22;4269;52.458;13.430;2022-08-03T10:11:33;29.80;51.80
8465;DHT22;4269;52.458;13.430;2022-08-03T10:14:03;29.90;51.30
8465;DHT22;4269;52.458;13.430;2022-08-03T10:16:35;30.40;52.00
8465;DHT22;4269;52.458;13.430;2022-08-03T10:19:05;29.90;50.70
8465;DHT22;4269;52.458;13.430;2022-08-03T10:21:46;29.90;48.80
8465;DHT22;4269;52.458;13.430;2022-08-03T10:24:16;30.00;48.00
8465;DHT22;4269;52.458;13.430;2022-08-03T10:26:45;30.00;47.70
8465;DHT22;4269;52.458;13.430;2022-08-03T10:29:17;30.10;49.30
8465;DHT22;4269;52.458;13.430;2022-08-03T10:31:45;30.10;48.60
8465;DHT22;4269;52.458;13.430;2022-08-03T10:34:23;29.90;47.20
8465;DHT22;4269;52.458;13.430;2022-08-03T10:36:51;30.20;48.20
8465;DHT22;4269;52.458;13.430;2022-08-03T10:39:21;30.20;48.60
8465;DHT22;4269;52.458;13.430;2022-08-03T10:44:19;30.30;48.80
8465;DHT22;4269;52.458;13.430;2022-08-03T10:46:47;30.40;48.60
8465;DHT22;4269;52.458;13.430;2022-08-03T10:54:43;30.60;47.50
8465;DHT22;4269;52.458;13.430;2022-08-03T11:00:34;30.60;47.60
8465;DHT22;4269;52.458;13.430;2022-08-03T11:05:49;30.40;47.90
8465;DHT22;4269;52.458;13.430;2022-08-03T11:08:29;30.40;47.80
8465;DHT22;4269;52.458;13.430;2022-08-03T11:11:01;30.50;47.60
8465;DHT22;4269;52.458;13.430;2022-08-03T11:13:29;30.70;47.30
8465;DHT22;4269;52.458;13.430;2022-08-03T11:15:59;30.70;46.90
8465;DHT22;4269;52.458;13.430;2022-08-03T11:18:32;30.80;46.90
8465;DHT22;4269;52.458;13.430;2022-08-03T11:23:46;31.00;47.60
8465;DHT22;4269;52.458;13.430;2022-08-03T11:26:20;30.60;48.70
8465;DHT22;4269;52.458;13.430;2022-08-03T11:28:47;31.40;47.40
8465;DHT22;4269;52.458;13.430;2022-08-03T11:34:07;31.60;46.20
8465;DHT22;4269;52.458;13.430;2022-08-03T11:39:44;31.80;47.80
8465;DHT22;4269;52.458;13.430;2022-08-03T11:44:53;31.90;45.30
8465;DHT22;4269;52.458;13.430;2022-08-03T11:47:23;31.70;45.70
8465;DHT22;4269;52.458;13.430;2022-08-03T11:49:53;31.80;45.70
8465;DHT22;4269;52.458;13.430;2022-08-03T11:52:19;31.60;45.10
8465;DHT22;4269;52.458;13.430;2022-08-03T11:54:50;32.00;46.60
8465;DHT22;4269;52.458;13.430;2022-08-03T11:57:38;32.10;45.10
8465;DHT22;4269;52.458;13.430;2022-08-03T12:00:24;32.30;45.50
8465;DHT22;4269;52.458;13.430;2022-08-03T12:05:38;31.40;45.00
8465;DHT22;4269;52.458;13.430;2022-08-03T12:08:05;32.60;45.60
8465;DHT22;4269;52.458;13.430;2022-08-03T12:10:31;32.50;45.20
8465;DHT22;4269;52.458;13.430;2022-08-03T12:12:59;32.40;45.20
8465;DHT22;4269;52.458;13.430;2022-08-03T12:15:30;32.20;43.80
8465;DHT22;4269;52.458;13.430;2022-08-03T12:17:59;32.60;44.40
8465;DHT22;4269;52.458;13.430;2022-08-03T12:23:05;32.70;43.10
8465;DHT22;4269;52.458;13.430;2022-08-03T12:25:33;32.80;43.10
8465;DHT22;4269;52.458;13.430;2022-08-03T12:36:08;33.30;43.00
8465;DHT22;4269;52.458;13.430;2022-08-03T12:38:38;33.30;42.10
8465;DHT22;4269;52.458;13.430;2022-08-03T12:41:06;33.30;42.50
8465;DHT22;4269;52.458;13.430;2022-08-03T12:43:33;33.50;42.90
8465;DHT22;4269;52.458;13.430;2022-08-03T12:46:09;33.50;42.90
8465;DHT22;4269;52.458;13.430;2022-08-03T12:48:35;33.70;43.00
8465;DHT22;4269;52.458;13.430;2022-08-03T12:51:10;33.70;41.50
8465;DHT22;4269;52.458;13.430;2022-08-03T12:56:05;34.10;42.10
8465;DHT22;4269;52.458;13.430;2022-08-03T12:58:32;34.20;41.90
8465;DHT22;4269;52.458;13.430;2022-08-03T13:00:59;34.10;42.40
8465;DHT22;4269;52.458;13.430;2022-08-03T13:03:24;34.20;40.60
8465;DHT22;4269;52.458;13.430;2022-08-03T13:05:50;34.00;40.70
8465;DHT22;4269;52.458;13.430;2022-08-03T13:08:20;34.30;41.50
8465;DHT22;4269;52.458;13.430;2022-08-03T13:13:16;34.50;39.70
8465;DHT22;4269;52.458;13.430;2022-08-03T13:15:50;34.60;39.70
8465;DHT22;4269;52.458;13.430;2022-08-03T13:18:24;34.60;39.60
8465;DHT22;4269;52.458;13.430;2022-08-03T13:20:50;34.60;39.40
8465;DHT22;4269;52.458;13.430;2022-08-03T13:23:16;35.00;40.00
8465;DHT22;4269;52.458;13.430;2022-08-03T13:25:41;35.00;39.80
8465;DHT22;4269;52.458;13.430;2022-08-03T13:28:07;35.20;39.60
8465;DHT22;4269;52.458;13.430;2022-08-03T13:30:32;35.30;40.20
8465;DHT22;4269;52.458;13.430;2022-08-03T13:32:58;35.80;39.80
8465;DHT22;4269;52.458;13.430;2022-08-03T13:37:50;36.10;38.70
8465;DHT22;4269;52.458;13.430;2022-08-03T13:40:16;35.80;39.20
8465;DHT22;4269;52.458;13.430;2022-08-03T13:42:42;35.50;37.40
8465;DHT22;4269;52.458;13.430;2022-08-03T13:45:08;35.40;38.80
8465;DHT22;4269;52.458;13.430;2022-08-03T13:47:34;35.80;38.60
8465;DHT22;4269;52.458;13.430;2022-08-03T13:50:01;35.90;37.90
8465;DHT22;4269;52.458;13.430;2022-08-03T13:52:31;35.90;38.40
8465;DHT22;4269;52.458;13.430;2022-08-03T13:54:57;36.10;36.50
8465;DHT22;4269;52.458;13.430;2022-08-03T13:57:24;35.90;37.70
8465;DHT22;4269;52.458;13.430;2022-08-03T13:59:49;36.00;37.10
8465;DHT22;4269;52.458;13.430;2022-08-03T14:02:17;35.20;36.40
8465;DHT22;4269;52.458;13.430;2022-08-03T14:04:43;35.70;36.00
8465;DHT22;4269;52.458;13.430;2022-08-03T14:07:09;35.60;36.00
8465;DHT22;4269;52.458;13.430;2022-08-03T14:09:34;36.00;35.80
8465;DHT22;4269;52.458;13.430;2022-08-03T14:12:00;36.30;34.90
8465;DHT22;4269;52.458;13.430;2022-08-03T14:14:25;36.40;34.80
8465;DHT22;4269;52.458;13.430;2022-08-03T14:21:43;38.20;33.90
8465;DHT22;4269;52.458;13.430;2022-08-03T14:29:02;42.60;28.90
8465;DHT22;4269;52.458;13.430;2022-08-03T14:31:29;44.10;27.50
8465;DHT22;4269;52.458;13.430;2022-08-03T14:33:55;44.40;27.50
8465;DHT22;4269;52.458;13.430;2022-08-03T14:36:20;46.90;23.70
8465;DHT22;4269;52.458;13.430;2022-08-03T14:38:46;46.80;24.00
8465;DHT22;4269;52.458;13.430;2022-08-03T14:41:11;48.20;22.60
8465;DHT22;4269;52.458;13.430;2022-08-03T14:43:38;49.10;20.10
8465;DHT22;4269;52.458;13.430;2022-08-03T14:46:04;49.90;19.70
8465;DHT22;4269;52.458;13.430;2022-08-03T14:48:29;50.10;20.20
8465;DHT22;4269;52.458;13.430;2022-08-03T14:50:55;51.20;19.60
8465;DHT22;4269;52.458;13.430;2022-08-03T14:53:21;51.10;19.00
8465;DHT22;4269;52.458;13.430;2022-08-03T14:55:48;51.40;18.60
8465;DHT22;4269;52.458;13.430;2022-08-03T14:58:14;52.50;17.60
8465;DHT22;4269;52.458;13.430;2022-08-03T15:00:40;51.60;17.50
8465;DHT22;4269;52.458;13.430;2022-08-03T15:03:05;51.70;17.70
8465;DHT22;4269;52.458;13.430;2022-08-03T15:05:31;51.60;18.00
8465;DHT22;4269;52.458;13.430;2022-08-03T15:07:56;52.20;16.10
8465;DHT22;4269;52.458;13.430;2022-08-03T15:10:22;52.20;16.40
8465;DHT22;4269;52.458;13.430;2022-08-03T15:12:48;53.00;16.50
8465;DHT22;4269;52.458;13.430;2022-08-03T15:15:13;52.90;16.70
8465;DHT22;4269;52.458;13.430;2022-08-03T15:20:05;51.90;16.00
8465;DHT22;4269;52.458;13.430;2022-08-03T15:22:33;49.80;16.60
8465;DHT22;4269;52.458;13.430;2022-08-03T15:25:00;49.70;16.90
8465;DHT22;4269;52.458;13.430;2022-08-03T15:29:52;51.30;17.00
8465;DHT22;4269;52.458;13.430;2022-08-03T15:32:18;52.50;16.70
8465;DHT22;4269;52.458;13.430;2022-08-03T15:34:45;53.00;16.70
8465;DHT22;4269;52.458;13.430;2022-08-03T15:37:11;53.80;16.00
8465;DHT22;4269;52.458;13.430;2022-08-03T15:39:36;54.00;15.30
8465;DHT22;4269;52.458;13.430;2022-08-03T15:42:02;54.10;15.50
8465;DHT22;4269;52.458;13.430;2022-08-03T15:44:27;54.30;15.40
8465;DHT22;4269;52.458;13.430;2022-08-03T15:46:53;53.80;15.40
8465;DHT22;4269;52.458;13.430;2022-08-03T15:49:19;51.30;16.00
8465;DHT22;4269;52.458;13.430;2022-08-03T15:51:45;51.30;15.60
8465;DHT22;4269;52.458;13.430;2022-08-03T15:54:11;51.40;16.20
8465;DHT22;4269;52.458;13.430;2022-08-03T15:56:37;51.30;15.80
8465;DHT22;4269;52.458;13.430;2022-08-03T15:59:03;51.10;16.30
8465;DHT22;4269;52.458;13.430;2022-08-03T16:01:29;48.90;16.60
8465;DHT22;4269;52.458;13.430;2022-08-03T16:03:55;46.10;18.00
8465;DHT22;4269;52.458;13.430;2022-08-03T16:06:21;41.80;19.90
8465;DHT22;4269;52.458;13.430;2022-08-03T16:08:47;43.70;20.50
8465;DHT22;4269;52.458;13.430;2022-08-03T16:11:12;46.00;19.30
8465;DHT22;4269;52.458;13.430;2022-08-03T16:16:04;46.80;18.30
8465;DHT22;4269;52.458;13.430;2022-08-03T16:18:30;48.90;17.10
8465;DHT22;4269;52.458;13.430;2022-08-03T16:20:57;49.10;16.70
8465;DHT22;4269;52.458;13.430;2022-08-03T16:23:22;49.80;16.30
8465;DHT22;4269;52.458;13.430;2022-08-03T16:25:48;49.80;16.60
8465;DHT22;4269;52.458;13.430;2022-08-03T16:28:14;50.20;16.10
8465;DHT22;4269;52.458;13.430;2022-08-03T16:30:42;50.20;16.50
8465;DHT22;4269;52.458;13.430;2022-08-03T16:33:09;50.60;16.60
8465;DHT22;4269;52.458;13.430;2022-08-03T16:35:35;49.70;16.50
8465;DHT22;4269;52.458;13.430;2022-08-03T16:38:01;47.50;17.40
8465;DHT22;4269;52.458;13.430;2022-08-03T16:40:27;46.70;18.20
8465;DHT22;4269;52.458;13.430;2022-08-03T16:42:52;46.80;18.20
8465;DHT22;4269;52.458;13.430;2022-08-03T16:45:18;46.90;17.70
8465;DHT22;4269;52.458;13.430;2022-08-03T16:47:45;46.90;18.10
8465;DHT22;4269;52.458;13.430;2022-08-03T16:50:10;47.80;17.30
8465;DHT22;4269;52.458;13.430;2022-08-03T16:52:36;48.40;17.30
8465;DHT22;4269;52.458;13.430;2022-08-03T16:55:02;48.40;17.80
8465;DHT22;4269;52.458;13.430;2022-08-03T16:57:28;50.00;17.30
8465;DHT22;4269;52.458;13.430;2022-08-03T16:59:54;50.10;17.20
8465;DHT22;4269;52.458;13.430;2022-08-03T17:02:24;50.00;17.40
8465;DHT22;4269;52.458;13.430;2022-08-03T17:04:51;50.10;16.40
8465;DHT22;4269;52.458;13.430;2022-08-03T17:07:18;49.80;16.50
8465;DHT22;4269;52.458;13.430;2022-08-03T17:12:11;49.80;16.60
8465;DHT22;4269;52.458;13.430;2022-08-03T17:17:07;49.60;16.60
8465;DHT22;4269;52.458;13.430;2022-08-03T17:19:38;49.20;17.00
8465;DHT22;4269;52.458;13.430;2022-08-03T17:22:13;49.00;17.00
8465;DHT22;4269;52.458;13.430;2022-08-03T17:24:44;47.60;17.80
8465;DHT22;4269;52.458;13.430;2022-08-03T17:27:24;44.70;19.50
8465;DHT22;4269;52.458;13.430;2022-08-03T17:29:58;42.50;21.20
8465;DHT22;4269;52.458;13.430;2022-08-03T17:32:25;40.80;22.60
8465;DHT22;4269;52.458;13.430;2022-08-03T17:34:53;39.60;23.70
8465;DHT22;4269;52.458;13.430;2022-08-03T17:37:20;38.70;23.80
8465;DHT22;4269;52.458;13.430;2022-08-03T17:52:03;35.20;27.80
8465;DHT22;4269;52.458;13.430;2022-08-03T17:57:30;34.80;28.60
8465;DHT22;4269;52.458;13.430;2022-08-03T18:00:11;34.60;29.30
8465;DHT22;4269;52.458;13.430;2022-08-03T18:08:11;34.10;29.80
8465;DHT22;4269;52.458;13.430;2022-08-03T18:10:38;33.90;30.30
8465;DHT22;4269;52.458;13.430;2022-08-03T18:13:20;33.70;31.30
8465;DHT22;4269;52.458;13.430;2022-08-03T18:16:00;33.90;30.60
8465;DHT22;4269;52.458;13.430;2022-08-03T18:18:30;33.30;30.90
8465;DHT22;4269;52.458;13.430;2022-08-03T18:21:04;33.20;31.90
8465;DHT22;4269;52.458;13.430;2022-08-03T18:25:56;32.90;33.30
8465;DHT22;4269;52.458;13.430;2022-08-03T18:28:25;32.70;32.10
8465;DHT22;4269;52.458;13.430;2022-08-03T18:30:51;32.60;32.60
8465;DHT22;4269;52.458;13.430;2022-08-03T18:33:17;32.40;34.30
8465;DHT22;4269;52.458;13.430;2022-08-03T18:35:43;32.30;33.00
8465;DHT22;4269;52.458;13.430;2022-08-03T18:38:11;32.20;33.70
8465;DHT22;4269;52.458;13.430;2022-08-03T18:40:39;32.00;35.90
8465;DHT22;4269;52.458;13.430;2022-08-03T18:43:06;31.80;34.00
8465;DHT22;4269;52.458;13.430;2022-08-03T18:45:35;31.80;34.10
8465;DHT22;4269;52.458;13.430;2022-08-03T18:48:14;31.80;35.20
8465;DHT22;4269;52.458;13.430;2022-08-03T18:50:50;31.50;35.30
8465;DHT22;4269;52.458;13.430;2022-08-03T18:53:39;31.50;35.10
8465;DHT22;4269;52.458;13.430;2022-08-03T19:01:53;31.10;37.10
8465;DHT22;4269;52.458;13.430;2022-08-03T19:04:30;31.00;36.90
8465;DHT22;4269;52.458;13.430;2022-08-03T19:07:07;30.90;38.80
8465;DHT22;4269;52.458;13.430;2022-08-03T19:09:47;30.80;36.90
8465;DHT22;4269;52.458;13.430;2022-08-03T19:12:17;30.70;37.50
8465;DHT22;4269;52.458;13.430;2022-08-03T19:15:02;30.60;37.60
8465;DHT22;4269;52.458;13.430;2022-08-03T19:17:28;30.40;37.70
8465;DHT22;4269;52.458;13.430;2022-08-03T19:19:57;30.20;37.70
8465;DHT22;4269;52.458;13.430;2022-08-03T19:22:23;30.40;39.30
8465;DHT22;4269;52.458;13.430;2022-08-03T19:24:53;30.30;38.70
8465;DHT22;4269;52.458;13.430;2022-08-03T19:27:21;30.20;38.70
8465;DHT22;4269;52.458;13.430;2022-08-03T19:29:47;30.10;39.60
8465;DHT22;4269;52.458;13.430;2022-08-03T19:32:16;30.20;40.60
8465;DHT22;4269;52.458;13.430;2022-08-03T19:34:46;30.00;40.40
8465;DHT22;4269;52.458;13.430;2022-08-03T19:37:13;29.80;41.50
8465;DHT22;4269;52.458;13.430;2022-08-03T19:39:41;29.70;42.50
8465;DHT22;4269;52.458;13.430;2022-08-03T19:42:09;29.70;42.20
8465;DHT22;4269;52.458;13.430;2022-08-03T19:44:43;29.50;42.00
8465;DHT22;4269;52.458;13.430;2022-08-03T19:47:09;29.50;43.50
8465;DHT22;4269;52.458;13.430;2022-08-03T19:49:37;29.00;42.00
8465;DHT22;4269;52.458;13.430;2022-08-03T19:52:09;29.30;43.20
8465;DHT22;4269;52.458;13.430;2022-08-03T19:54:40;29.20;42.80
8465;DHT22;4269;52.458;13.430;2022-08-03T19:57:07;29.10;43.50
8465;DHT22;4269;52.458;13.430;2022-08-03T19:59:35;29.00;43.70
8465;DHT22;4269;52.458;13.430;2022-08-03T20:02:06;29.00;45.20